sensor_id;sensor_type;location;lat;lon;timestamp;pressure;altitude;pressure_sealevel;temperature;humidity
41334;BME280;27078;46.428;6.256;2023-06-10T00:01:00;96125.72;;;16.03;100.00
41334;BME280;27078;46.428;6.256;2023-06-10T00:03:26;96132.41;;;15.99;100.00
41334;BME280;27078;46.428;6.256;2023-06-10T00:05:51;96133.25;;;16.00;100.00
41334;BME280;27078;46.428;6.256;2023-06-10T00:08:17;96135.44;;;15.96;100.00
41334;BME280;27078;46.428;6.256;2023-06-10T00:10:45;96145.44;;;15.94;100.00
41334;BME280;27078;46.428;6.256;2023-06-10T00:13:10;96140.47;;;15.91;100.00
41334;BME280;27078;46.428;6.256;2023-06-10T00:15:36;96141.66;;;15.88;100.00
41334;BME280;27078;46.428;6.256;2023-06-10T00:18:02;96138.81;;;15.90;100.00
41334;BME280;27078;46.428;6.256;2023-06-10T00:20:28;96145.78;;;15.91;100.00
41334;BME280;27078;46.428;6.256;2023-06-10T00:22:53;96146.16;;;15.88;100.00
41334;BME280;27078;46.428;6.256;2023-06-10T00:25:19;96142.47;;;15.89;100.00
41334;BME280;27078;46.428;6.256;2023-06-10T00:27:44;96140.13;;;15.94;100.00
41334;BME280;27078;46.428;6.256;2023-06-10T00:30:10;96138.13;;;15.96;100.00
41334;BME280;27078;46.428;6.256;2023-06-10T00:32:36;96136.63;;;15.94;100.00
41334;BME280;27078;46.428;6.256;2023-06-10T00:35:03;96132.31;;;15.93;100.00
41334;BME280;27078;46.428;6.256;2023-06-10T00:37:28;96137.25;;;15.96;100.00
41334;BME280;27078;46.428;6.256;2023-06-10T00:39:54;96126.97;;;15.93;100.00
41334;BME280;27078;46.428;6.256;2023-06-10T00:42:20;96126.50;;;15.89;100.00
41334;BME280;27078;46.428;6.256;2023-06-10T00:44:47;96130.63;;;15.92;100.00
41334;BME280;27078;46.428;6.256;2023-06-10T00:47:13;96134.44;;;15.97;100.00
41334;BME280;27078;46.428;6.256;2023-06-10T00:49:38;96126.94;;;16.01;100.00
41334;BME280;27078;46.428;6.256;2023-06-10T00:52:05;96126.75;;;16.02;100.00
41334;BME280;27078;46.428;6.256;2023-06-10T00:54:32;96134.09;;;16.00;100.00
41334;BME280;27078;46.428;6.256;2023-06-10T00:57:00;96133.63;;;15.97;100.00
41334;BME280;27078;46.428;6.256;2023-06-10T00:59:27;96134.31;;;15.91;100.00
41334;BME280;27078;46.428;6.256;2023-06-10T01:01:53;96124.84;;;15.88;100.00
41334;BME280;27078;46.428;6.256;2023-06-10T01:04:19;96126.03;;;15.85;100.00
41334;BME280;27078;46.428;6.256;2023-06-10T01:14:57;96120.88;;;15.84;100.00
41334;BME280;27078;46.428;6.256;2023-06-10T01:17:23;96116.56;;;15.83;100.00
41334;BME280;27078;46.428;6.256;2023-06-10T01:19:55;96123.19;;;15.87;100.00
41334;BME280;27078;46.428;6.256;2023-06-10T01:22:22;96126.22;;;15.84;100.00
41334;BME280;27078;46.428;6.256;2023-06-10T01:24:48;96119.03;;;15.84;100.00
41334;BME280;27078;46.428;6.256;2023-06-10T01:27:19;96114.53;;;15.85;100.00
41334;BME280;27078;46.428;6.256;2023-06-10T01:29:50;96110.72;;;15.87;100.00
41334;BME280;27078;46.428;6.256;2023-06-10T01:32:40;96107.03;;;15.88;100.00
41334;BME280;27078;46.428;6.256;2023-06-10T01:35:08;96105.69;;;15.93;100.00
41334;BME280;27078;46.428;6.256;2023-06-10T01:37:34;96107.81;;;15.97;100.00
41334;BME280;27078;46.428;6.256;2023-06-10T01:40:02;96106.50;;;15.93;100.00
41334;BME280;27078;46.428;6.256;2023-06-10T01:42:31;96099.34;;;15.94;100.00
41334;BME280;27078;46.428;6.256;2023-06-10T01:44:57;96101.16;;;15.93;100.00
41334;BME280;27078;46.428;6.256;2023-06-10T01:47:23;96092.53;;;15.91;100.00
41334;BME280;27078;46.428;6.256;2023-06-10T01:49:48;96102.84;;;15.94;100.00
41334;BME280;27078;46.428;6.256;2023-06-10T01:52:14;96104.16;;;15.98;100.00
41334;BME280;27078;46.428;6.256;2023-06-10T01:54:39;96107.81;;;15.97;100.00
41334;BME280;27078;46.428;6.256;2023-06-10T01:57:05;96103.84;;;15.93;100.00
41334;BME280;27078;46.428;6.256;2023-06-10T01:59:31;96113.50;;;15.94;100.00
41334;BME280;27078;46.428;6.256;2023-06-10T02:01:56;96117.16;;;15.93;100.00
41334;BME280;27078;46.428;6.256;2023-06-10T02:04:22;96114.47;;;15.93;100.00
41334;BME280;27078;46.428;6.256;2023-06-10T02:06:50;96119.28;;;15.98;100.00
41334;BME280;27078;46.428;6.256;2023-06-10T02:09:16;96111.13;;;15.99;100.00
41334;BME280;27078;46.428;6.256;2023-06-10T02:11:43;96109.53;;;15.90;100.00
41334;BME280;27078;46.428;6.256;2023-06-10T02:14:09;96106.91;;;15.82;100.00
41334;BME280;27078;46.428;6.256;2023-06-10T02:16:34;96112.59;;;15.79;100.00
41334;BME280;27078;46.428;6.256;2023-06-10T02:18:59;96113.97;;;15.75;100.00
41334;BME280;27078;46.428;6.256;2023-06-10T02:21:25;96123.63;;;15.67;100.00
41334;BME280;27078;46.428;6.256;2023-06-10T02:23:51;96116.66;;;15.66;100.00
41334;BME280;27078;46.428;6.256;2023-06-10T02:26:16;96122.63;;;15.68;100.00
41334;BME280;27078;46.428;6.256;2023-06-10T02:28:44;96121.97;;;15.66;100.00
41334;BME280;27078;46.428;6.256;2023-06-10T02:31:10;96124.63;;;15.66;100.00
41334;BME280;27078;46.428;6.256;2023-06-10T02:33:35;96130.09;;;15.73;100.00
41334;BME280;27078;46.428;6.256;2023-06-10T02:36:05;96122.28;;;15.72;100.00
41334;BME280;27078;46.428;6.256;2023-06-10T02:38:31;96121.59;;;15.70;100.00
41334;BME280;27078;46.428;6.256;2023-06-10T02:40:56;96119.75;;;15.70;100.00
41334;BME280;27078;46.428;6.256;2023-06-10T02:43:21;96121.59;;;15.70;100.00
41334;BME280;27078;46.428;6.256;2023-06-10T02:45:46;96115.97;;;15.73;100.00
41334;BME280;27078;46.428;6.256;2023-06-10T02:48:12;96130.09;;;15.73;100.00
41334;BME280;27078;46.428;6.256;2023-06-10T02:50:37;96120.94;;;15.76;100.00
41334;BME280;27078;46.428;6.256;2023-06-10T02:53:05;96122.94;;;15.74;100.00
41334;BME280;27078;46.428;6.256;2023-06-10T02:55:30;96117.97;;;15.71;100.00
41334;BME280;27078;46.428;6.256;2023-06-10T02:57:55;96126.28;;;15.67;100.00
41334;BME280;27078;46.428;6.256;2023-06-10T03:00:21;96121.97;;;15.66;100.00
41334;BME280;27078;46.428;6.256;2023-06-10T03:02:46;96126.44;;;15.74;100.00
41334;BME280;27078;46.428;6.256;2023-06-10T03:05:12;96123.72;;;15.82;100.00
41334;BME280;27078;46.428;6.256;2023-06-10T03:07:38;96121.16;;;15.89;100.00
41334;BME280;27078;46.428;6.256;2023-06-10T03:10:06;96128.06;;;15.83;100.00
41334;BME280;27078;46.428;6.256;2023-06-10T03:12:31;96118.94;;;15.78;100.00
41334;BME280;27078;46.428;6.256;2023-06-10T03:14:57;96128.75;;;15.77;100.00
41334;BME280;27078;46.428;6.256;2023-06-10T03:17:23;96133.59;;;15.74;100.00
41334;BME280;27078;46.428;6.256;2023-06-10T03:19:48;96129.28;;;15.73;100.00
41334;BME280;27078;46.428;6.256;2023-06-10T03:22:14;96130.28;;;15.72;100.00
41334;BME280;27078;46.428;6.256;2023-06-10T03:24:40;96127.63;;;15.72;100.00
41334;BME280;27078;46.428;6.256;2023-06-10T03:27:07;96123.28;;;15.71;100.00
41334;BME280;27078;46.428;6.256;2023-06-10T03:29:32;96129.59;;;15.70;100.00
41334;BME280;27078;46.428;6.256;2023-06-10T03:31:57;96135.59;;;15.72;100.00
41334;BME280;27078;46.428;6.256;2023-06-10T03:34:23;96125.44;;;15.75;100.00
41334;BME280;27078;46.428;6.256;2023-06-10T03:36:48;96138.25;;;15.72;100.00
41334;BME280;27078;46.428;6.256;2023-06-10T03:39:14;96130.63;;;15.68;100.00
41334;BME280;27078;46.428;6.256;2023-06-10T03:41:40;96132.25;;;15.70;100.00
41334;BME280;27078;46.428;6.256;2023-06-10T03:44:05;96132.63;;;15.66;100.00
41334;BME280;27078;46.428;6.256;2023-06-10T03:46:31;96139.75;;;15.66;100.00
41334;BME280;27078;46.428;6.256;2023-06-10T03:48:56;96141.59;;;15.65;100.00
41334;BME280;27078;46.428;6.256;2023-06-10T03:51:21;96137.94;;;15.66;100.00
41334;BME280;27078;46.428;6.256;2023-06-10T03:53:48;96133.28;;;15.68;100.00
41334;BME280;27078;46.428;6.256;2023-06-10T03:56:13;96126.91;;;15.78;100.00
41334;BME280;27078;46.428;6.256;2023-06-10T03:58:38;96131.41;;;15.77;100.00
41334;BME280;27078;46.428;6.256;2023-06-10T04:01:04;96128.75;;;15.77;100.00
41334;BME280;27078;46.428;6.256;2023-06-10T04:03:29;96134.25;;;15.76;100.00
41334;BME280;27078;46.428;6.256;2023-06-10T04:05:54;96133.06;;;15.78;100.00
41334;BME280;27078;46.428;6.256;2023-06-10T04:08:20;96139.22;;;15.79;100.00
41334;BME280;27078;46.428;6.256;2023-06-10T04:10:45;96137.19;;;15.81;100.00
41334;BME280;27078;46.428;6.256;2023-06-10T04:13:11;96132.53;;;15.83;100.00
41334;BME280;27078;46.428;6.256;2023-06-10T04:15:36;96129.34;;;15.87;100.00
41334;BME280;27078;46.428;6.256;2023-06-10T04:18:02;96136.16;;;15.90;100.00
41334;BME280;27078;46.428;6.256;2023-06-10T04:20:27;96136.16;;;15.90;100.00
41334;BME280;27078;46.428;6.256;2023-06-10T04:22:53;96133.50;;;15.90;100.00
41334;BME280;27078;46.428;6.256;2023-06-10T04:25:18;96136.63;;;15.94;100.00
41334;BME280;27078;46.428;6.256;2023-06-10T04:27:44;96132.97;;;15.95;100.00
41334;BME280;27078;46.428;6.256;2023-06-10T04:30:10;96139.41;;;16.00;100.00
41334;BME280;27078;46.428;6.256;2023-06-10T04:32:35;96140.72;;;16.04;100.00
41334;BME280;27078;46.428;6.256;2023-06-10T04:35:01;96140.00;;;16.11;100.00
41334;BME280;27078;46.428;6.256;2023-06-10T04:37:26;96143.94;;;16.15;100.00
41334;BME280;27078;46.428;6.256;2023-06-10T04:39:51;96138.13;;;16.19;100.00
41334;BME280;27078;46.428;6.256;2023-06-10T04:42:16;96140.25;;;16.24;100.00
41334;BME280;27078;46.428;6.256;2023-06-10T04:44:42;96135.56;;;16.26;100.00
41334;BME280;27078;46.428;6.256;2023-06-10T04:47:08;96139.53;;;16.30;100.00
41334;BME280;27078;46.428;6.256;2023-06-10T04:49:34;96143.50;;;16.34;100.00
41334;BME280;27078;46.428;6.256;2023-06-10T04:52:00;96151.09;;;16.37;100.00
41334;BME280;27078;46.428;6.256;2023-06-10T04:54:26;96142.78;;;16.40;100.00
41334;BME280;27078;46.428;6.256;2023-06-10T04:56:51;96145.72;;;16.45;100.00
41334;BME280;27078;46.428;6.256;2023-06-10T04:59:16;96152.28;;;16.58;100.00
41334;BME280;27078;46.428;6.256;2023-06-10T05:01:42;96150.69;;;16.63;100.00
41334;BME280;27078;46.428;6.256;2023-06-10T05:04:08;96149.81;;;16.71;100.00
41334;BME280;27078;46.428;6.256;2023-06-10T05:06:33;96151.41;;;16.80;100.00
41334;BME280;27078;46.428;6.256;2023-06-10T05:08:59;96158.50;;;16.88;100.00
41334;BME280;27078;46.428;6.256;2023-06-10T05:11:24;96152.69;;;16.99;100.00
41334;BME280;27078;46.428;6.256;2023-06-10T05:13:49;96155.28;;;17.07;100.00
41334;BME280;27078;46.428;6.256;2023-06-10T05:16:15;96151.53;;;17.17;100.00
41334;BME280;27078;46.428;6.256;2023-06-10T05:18:42;96153.72;;;17.28;100.00
41334;BME280;27078;46.428;6.256;2023-06-10T05:21:10;96148.94;;;17.38;100.00
41334;BME280;27078;46.428;6.256;2023-06-10T05:23:35;96153.97;;;17.48;100.00
41334;BME280;27078;46.428;6.256;2023-06-10T05:26:00;96156.91;;;17.53;100.00
41334;BME280;27078;46.428;6.256;2023-06-10T05:28:26;96153.31;;;17.61;100.00
41334;BME280;27078;46.428;6.256;2023-06-10T05:30:51;96149.06;;;17.66;100.00
41334;BME280;27078;46.428;6.256;2023-06-10T05:33:16;96164.16;;;17.74;100.00
41334;BME280;27078;46.428;6.256;2023-06-10T05:35:42;96158.88;;;17.81;100.00
41334;BME280;27078;46.428;6.256;2023-06-10T05:38:07;96159.38;;;17.84;100.00
41334;BME280;27078;46.428;6.256;2023-06-10T05:40:33;96164.78;;;17.91;100.00
41334;BME280;27078;46.428;6.256;2023-06-10T05:42:58;96168.09;;;17.93;100.00
41334;BME280;27078;46.428;6.256;2023-06-10T05:45:23;96166.50;;;17.99;100.00
41334;BME280;27078;46.428;6.256;2023-06-10T05:47:49;96174.72;;;17.97;100.00
41334;BME280;27078;46.428;6.256;2023-06-10T05:50:14;96168.84;;;17.87;100.00
41334;BME280;27078;46.428;6.256;2023-06-10T05:52:40;96177.50;;;17.89;100.00
41334;BME280;27078;46.428;6.256;2023-06-10T05:55:06;96165.16;;;17.88;100.00
41334;BME280;27078;46.428;6.256;2023-06-10T05:57:31;96175.84;;;17.88;100.00
41334;BME280;27078;46.428;6.256;2023-06-10T05:59:57;96175.66;;;17.75;100.00
41334;BME280;27078;46.428;6.256;2023-06-10T06:02:23;96174.00;;;17.74;100.00
41334;BME280;27078;46.428;6.256;2023-06-10T06:04:49;96168.47;;;17.75;100.00
41334;BME280;27078;46.428;6.256;2023-06-10T06:07:14;96174.09;;;17.80;100.00
41334;BME280;27078;46.428;6.256;2023-06-10T06:09:39;96171.88;;;17.84;100.00
41334;BME280;27078;46.428;6.256;2023-06-10T06:12:05;96170.69;;;17.86;100.00
41334;BME280;27078;46.428;6.256;2023-06-10T06:14:32;96175.47;;;17.91;100.00
41334;BME280;27078;46.428;6.256;2023-06-10T06:17:01;96181.63;;;17.92;100.00
41334;BME280;27078;46.428;6.256;2023-06-10T06:19:27;96176.94;;;17.94;100.00
41334;BME280;27078;46.428;6.256;2023-06-10T06:21:52;96181.72;;;17.98;100.00
41334;BME280;27078;46.428;6.256;2023-06-10T06:24:18;96180.56;;;18.07;100.00
41334;BME280;27078;46.428;6.256;2023-06-10T06:26:43;96183.13;;;18.16;100.00
41334;BME280;27078;46.428;6.256;2023-06-10T06:29:08;96184.84;;;18.23;100.00
41334;BME280;27078;46.428;6.256;2023-06-10T06:31:34;96185.53;;;18.32;100.00
41334;BME280;27078;46.428;6.256;2023-06-10T06:33:59;96184.16;;;18.36;100.00
41334;BME280;27078;46.428;6.256;2023-06-10T06:36:25;96184.19;;;18.43;100.00
41334;BME280;27078;46.428;6.256;2023-06-10T06:38:50;96189.41;;;18.51;100.00
41334;BME280;27078;46.428;6.256;2023-06-10T06:41:16;96188.84;;;18.56;100.00
41334;BME280;27078;46.428;6.256;2023-06-10T06:43:41;96194.63;;;18.59;100.00
41334;BME280;27078;46.428;6.256;2023-06-10T06:46:08;96189.16;;;18.67;100.00
41334;BME280;27078;46.428;6.256;2023-06-10T06:48:33;96187.44;;;18.81;100.00
41334;BME280;27078;46.428;6.256;2023-06-10T06:50:59;96193.31;;;18.98;100.00
41334;BME280;27078;46.428;6.256;2023-06-10T06:53:24;96192.59;;;19.11;100.00
41334;BME280;27078;46.428;6.256;2023-06-10T06:55:50;96198.06;;;19.31;100.00
41334;BME280;27078;46.428;6.256;2023-06-10T06:58:15;96195.28;;;19.46;100.00
41334;BME280;27078;46.428;6.256;2023-06-10T07:00:41;96189.97;;;19.59;100.00
41334;BME280;27078;46.428;6.256;2023-06-10T07:03:06;96189.19;;;19.65;100.00
41334;BME280;27078;46.428;6.256;2023-06-10T07:05:31;96189.25;;;19.79;100.00
41334;BME280;27078;46.428;6.256;2023-06-10T07:07:56;96180.06;;;20.01;100.00
41334;BME280;27078;46.428;6.256;2023-06-10T07:10:23;96189.00;;;20.15;100.00
41334;BME280;27078;46.428;6.256;2023-06-10T07:12:49;96193.75;;;20.26;100.00
41334;BME280;27078;46.428;6.256;2023-06-10T07:15:15;96190.69;;;20.43;100.00
41334;BME280;27078;46.428;6.256;2023-06-10T07:17:40;96193.16;;;20.44;100.00
41334;BME280;27078;46.428;6.256;2023-06-10T07:20:06;96206.16;;;20.47;100.00
41334;BME280;27078;46.428;6.256;2023-06-10T07:22:31;96198.50;;;20.44;100.00
41334;BME280;27078;46.428;6.256;2023-06-10T07:24:57;96202.69;;;20.60;100.00
41334;BME280;27078;46.428;6.256;2023-06-10T07:27:23;96199.41;;;20.78;100.00
41334;BME280;27078;46.428;6.256;2023-06-10T07:29:48;96202.28;;;20.97;100.00
41334;BME280;27078;46.428;6.256;2023-06-10T07:32:13;96201.44;;;21.09;100.00
41334;BME280;27078;46.428;6.256;2023-06-10T07:34:39;96205.34;;;21.20;100.00
41334;BME280;27078;46.428;6.256;2023-06-10T07:37:05;96209.03;;;21.39;100.00
41334;BME280;27078;46.428;6.256;2023-06-10T07:39:30;96209.50;;;21.43;100.00
41334;BME280;27078;46.428;6.256;2023-06-10T07:41:56;96209.66;;;21.61;100.00
41334;BME280;27078;46.428;6.256;2023-06-10T07:44:23;96204.19;;;21.81;100.00
41334;BME280;27078;46.428;6.256;2023-06-10T07:46:48;96210.72;;;21.99;100.00
41334;BME280;27078;46.428;6.256;2023-06-10T07:49:14;96202.38;;;22.13;100.00
41334;BME280;27078;46.428;6.256;2023-06-10T07:51:39;96198.63;;;22.21;100.00
41334;BME280;27078;46.428;6.256;2023-06-10T07:54:05;96205.66;;;22.29;100.00
41334;BME280;27078;46.428;6.256;2023-06-10T07:56:30;96207.22;;;22.43;100.00
41334;BME280;27078;46.428;6.256;2023-06-10T07:58:56;96212.13;;;22.53;100.00
41334;BME280;27078;46.428;6.256;2023-06-10T08:01:22;96210.00;;;22.62;100.00
41334;BME280;27078;46.428;6.256;2023-06-10T08:03:48;96208.34;;;22.29;100.00
41334;BME280;27078;46.428;6.256;2023-06-10T08:06:13;96208.38;;;22.61;100.00
41334;BME280;27078;46.428;6.256;2023-06-10T08:08:39;96203.13;;;22.66;100.00
41334;BME280;27078;46.428;6.256;2023-06-10T08:11:10;96204.50;;;22.75;100.00
41334;BME280;27078;46.428;6.256;2023-06-10T08:13:35;96212.22;;;22.96;100.00
41334;BME280;27078;46.428;6.256;2023-06-10T08:16:01;96210.13;;;23.05;100.00
41334;BME280;27078;46.428;6.256;2023-06-10T08:18:26;96204.28;;;23.08;100.00
41334;BME280;27078;46.428;6.256;2023-06-10T08:20:51;96208.94;;;22.94;100.00
41334;BME280;27078;46.428;6.256;2023-06-10T08:23:17;96208.94;;;22.94;100.00
41334;BME280;27078;46.428;6.256;2023-06-10T08:25:42;96208.59;;;22.84;100.00
41334;BME280;27078;46.428;6.256;2023-06-10T08:28:07;96200.63;;;22.96;100.00
41334;BME280;27078;46.428;6.256;2023-06-10T08:30:33;96203.88;;;23.05;100.00
41334;BME280;27078;46.428;6.256;2023-06-10T08:32:59;96206.84;;;23.22;100.00
41334;BME280;27078;46.428;6.256;2023-06-10T08:35:25;96209.13;;;23.43;100.00
41334;BME280;27078;46.428;6.256;2023-06-10T08:37:50;96205.16;;;23.64;100.00
41334;BME280;27078;46.428;6.256;2023-06-10T08:40:15;96205.34;;;23.88;100.00
41334;BME280;27078;46.428;6.256;2023-06-10T08:45:30;96201.56;;;24.26;100.00
41334;BME280;27078;46.428;6.256;2023-06-10T08:48:00;96197.69;;;24.64;100.00
41334;BME280;27078;46.428;6.256;2023-06-10T08:50:28;96204.19;;;24.74;100.00
41334;BME280;27078;46.428;6.256;2023-06-10T08:52:57;96194.22;;;24.75;100.00
41334;BME280;27078;46.428;6.256;2023-06-10T08:55:29;96188.81;;;24.75;100.00
41334;BME280;27078;46.428;6.256;2023-06-10T08:57:55;96200.19;;;24.77;100.00
41334;BME280;27078;46.428;6.256;2023-06-10T09:00:21;96200.41;;;24.75;100.00
41334;BME280;27078;46.428;6.256;2023-06-10T09:02:47;96198.09;;;24.79;100.00
41334;BME280;27078;46.428;6.256;2023-06-10T09:05:13;96202.34;;;24.98;100.00
41334;BME280;27078;46.428;6.256;2023-06-10T09:07:39;96193.66;;;24.96;100.00
41334;BME280;27078;46.428;6.256;2023-06-10T09:10:04;96197.84;;;24.81;100.00
41334;BME280;27078;46.428;6.256;2023-06-10T09:12:33;96193.88;;;24.83;100.00
41334;BME280;27078;46.428;6.256;2023-06-10T09:14:59;96195.06;;;24.87;100.00
41334;BME280;27078;46.428;6.256;2023-06-10T09:17:24;96196.81;;;24.93;100.00
41334;BME280;27078;46.428;6.256;2023-06-10T09:19:50;96195.75;;;24.94;100.00
41334;BME280;27078;46.428;6.256;2023-06-10T09:22:18;96198.38;;;25.13;100.00
41334;BME280;27078;46.428;6.256;2023-06-10T09:24:44;96202.47;;;25.27;100.00
41334;BME280;27078;46.428;6.256;2023-06-10T09:27:11;96201.56;;;25.22;100.00
41334;BME280;27078;46.428;6.256;2023-06-10T09:32:10;96197.19;;;25.56;100.00
41334;BME280;27078;46.428;6.256;2023-06-10T09:34:36;96195.75;;;25.65;100.00
41334;BME280;27078;46.428;6.256;2023-06-10T09:37:02;96199.53;;;25.64;100.00
41334;BME280;27078;46.428;6.256;2023-06-10T09:39:27;96199.16;;;25.96;100.00
41334;BME280;27078;46.428;6.256;2023-06-10T09:41:52;96200.34;;;26.46;100.00
41334;BME280;27078;46.428;6.256;2023-06-10T09:44:19;96190.69;;;26.95;100.00
41334;BME280;27078;46.428;6.256;2023-06-10T09:46:46;96203.91;;;27.81;100.00
41334;BME280;27078;46.428;6.256;2023-06-10T09:49:12;96199.84;;;28.01;100.00
41334;BME280;27078;46.428;6.256;2023-06-10T09:51:37;96206.88;;;27.24;100.00
41334;BME280;27078;46.428;6.256;2023-06-10T09:54:03;96199.41;;;26.97;100.00
41334;BME280;27078;46.428;6.256;2023-06-10T09:56:35;96195.78;;;27.26;100.00
41334;BME280;27078;46.428;6.256;2023-06-10T09:59:01;96193.97;;;27.48;100.00
41334;BME280;27078;46.428;6.256;2023-06-10T10:01:27;96197.13;;;27.62;100.00
41334;BME280;27078;46.428;6.256;2023-06-10T10:03:53;96199.53;;;27.80;100.00
41334;BME280;27078;46.428;6.256;2023-06-10T10:06:19;96194.19;;;27.47;100.00
41334;BME280;27078;46.428;6.256;2023-06-10T10:08:47;96197.50;;;27.88;100.00
41334;BME280;27078;46.428;6.256;2023-06-10T10:11:14;96188.75;;;28.30;100.00
41334;BME280;27078;46.428;6.256;2023-06-10T10:13:41;96187.16;;;28.34;100.00
41334;BME280;27078;46.428;6.256;2023-06-10T10:16:11;96190.69;;;28.56;100.00
41334;BME280;27078;46.428;6.256;2023-06-10T10:18:43;96187.84;;;28.46;100.00
41334;BME280;27078;46.428;6.256;2023-06-10T10:21:15;96184.72;;;28.59;100.00
41334;BME280;27078;46.428;6.256;2023-06-10T10:24:07;96177.97;;;28.35;100.00
41334;BME280;27078;46.428;6.256;2023-06-10T10:26:35;96180.72;;;28.62;100.00
41334;BME280;27078;46.428;6.256;2023-06-10T10:29:24;96180.44;;;28.36;100.00
41334;BME280;27078;46.428;6.256;2023-06-10T10:31:51;96182.56;;;28.34;100.00
41334;BME280;27078;46.428;6.256;2023-06-10T10:34:22;96181.81;;;28.17;100.00
41334;BME280;27078;46.428;6.256;2023-06-10T10:36:50;96183.69;;;28.11;100.00
41334;BME280;27078;46.428;6.256;2023-06-10T10:39:16;96182.78;;;27.84;100.00
41334;BME280;27078;46.428;6.256;2023-06-10T10:41:42;96180.97;;;27.72;100.00
41334;BME280;27078;46.428;6.256;2023-06-10T10:44:08;96188.78;;;27.13;100.00
41334;BME280;27078;46.428;6.256;2023-06-10T10:46:48;96177.13;;;26.62;100.00
41334;BME280;27078;46.428;6.256;2023-06-10T10:49:15;96182.00;;;26.19;100.00
41334;BME280;27078;46.428;6.256;2023-06-10T10:52:00;96190.16;;;25.55;100.00
41334;BME280;27078;46.428;6.256;2023-06-10T10:54:35;96194.50;;;25.44;100.00
41334;BME280;27078;46.428;6.256;2023-06-10T10:59:43;96190.34;;;24.94;100.00
41334;BME280;27078;46.428;6.256;2023-06-10T11:02:09;96195.25;;;24.74;100.00
41334;BME280;27078;46.428;6.256;2023-06-10T11:04:35;96192.44;;;24.69;100.00
41334;BME280;27078;46.428;6.256;2023-06-10T11:07:07;96191.03;;;24.78;100.00
41334;BME280;27078;46.428;6.256;2023-06-10T11:09:32;96198.66;;;24.69;100.00
41334;BME280;27078;46.428;6.256;2023-06-10T11:11:58;96198.28;;;24.35;100.00
41334;BME280;27078;46.428;6.256;2023-06-10T11:14:30;96200.59;;;24.32;100.00
41334;BME280;27078;46.428;6.256;2023-06-10T11:16:59;96201.91;;;24.29;100.00
41334;BME280;27078;46.428;6.256;2023-06-10T11:19:34;96197.09;;;24.01;100.00
41334;BME280;27078;46.428;6.256;2023-06-10T11:22:02;96205.75;;;23.66;100.00
41334;BME280;27078;46.428;6.256;2023-06-10T11:24:29;96205.81;;;23.23;100.00
41334;BME280;27078;46.428;6.256;2023-06-10T11:26:54;96207.56;;;22.53;100.00
41334;BME280;27078;46.428;6.256;2023-06-10T11:29:21;96207.31;;;22.30;100.00
41334;BME280;27078;46.428;6.256;2023-06-10T11:31:50;96208.66;;;22.01;100.00
41334;BME280;27078;46.428;6.256;2023-06-10T11:34:22;96214.19;;;21.54;100.00
41334;BME280;27078;46.428;6.256;2023-06-10T11:36:52;96213.41;;;21.40;100.00
41334;BME280;27078;46.428;6.256;2023-06-10T11:39:19;96214.66;;;21.11;100.00
41334;BME280;27078;46.428;6.256;2023-06-10T11:41:45;96213.44;;;20.93;100.00
41334;BME280;27078;46.428;6.256;2023-06-10T11:44:12;96217.16;;;20.79;100.00
41334;BME280;27078;46.428;6.256;2023-06-10T11:46:38;96218.59;;;20.62;100.00
41334;BME280;27078;46.428;6.256;2023-06-10T11:49:04;96215.47;;;20.51;100.00
41334;BME280;27078;46.428;6.256;2023-06-10T11:51:40;96201.19;;;20.38;100.00
41334;BME280;27078;46.428;6.256;2023-06-10T11:54:09;96199.91;;;20.13;100.00
41334;BME280;27078;46.428;6.256;2023-06-10T11:56:34;96201.97;;;20.11;100.00
41334;BME280;27078;46.428;6.256;2023-06-10T11:59:04;96193.47;;;20.01;100.00
41334;BME280;27078;46.428;6.256;2023-06-10T12:01:34;96207.72;;;20.08;100.00
41334;BME280;27078;46.428;6.256;2023-06-10T12:04:03;96200.44;;;19.96;100.00
41334;BME280;27078;46.428;6.256;2023-06-10T12:06:42;96197.13;;;19.87;100.00
41334;BME280;27078;46.428;6.256;2023-06-10T12:09:29;96192.19;;;19.84;100.00
41334;BME280;27078;46.428;6.256;2023-06-10T12:11:58;96192.97;;;19.78;100.00
41334;BME280;27078;46.428;6.256;2023-06-10T12:14:56;96189.69;;;19.82;100.00
41334;BME280;27078;46.428;6.256;2023-06-10T12:20:00;96188.09;;;19.88;100.00
41334;BME280;27078;46.428;6.256;2023-06-10T12:22:26;96182.72;;;19.88;100.00
41334;BME280;27078;46.428;6.256;2023-06-10T12:24:59;96183.91;;;19.85;100.00
41334;BME280;27078;46.428;6.256;2023-06-10T12:27:25;96187.44;;;19.86;100.00
41334;BME280;27078;46.428;6.256;2023-06-10T12:29:51;96178.78;;;19.84;100.00
41334;BME280;27078;46.428;6.256;2023-06-10T12:32:19;96179.44;;;19.99;100.00
41334;BME280;27078;46.428;6.256;2023-06-10T12:34:45;96172.41;;;19.91;100.00
41334;BME280;27078;46.428;6.256;2023-06-10T12:37:12;96163.38;;;19.99;100.00
41334;BME280;27078;46.428;6.256;2023-06-10T12:39:42;96167.91;;;20.05;100.00
41334;BME280;27078;46.428;6.256;2023-06-10T12:42:12;96171.63;;;20.04;100.00
41334;BME280;27078;46.428;6.256;2023-06-10T12:44:40;96170.44;;;20.20;100.00
41334;BME280;27078;46.428;6.256;2023-06-10T12:47:10;96163.81;;;20.09;100.00
41334;BME280;27078;46.428;6.256;2023-06-10T12:49:37;96161.13;;;20.16;100.00
41334;BME280;27078;46.428;6.256;2023-06-10T12:52:04;96158.84;;;20.06;100.00
41334;BME280;27078;46.428;6.256;2023-06-10T12:54:30;96164.34;;;19.78;100.00
41334;BME280;27078;46.428;6.256;2023-06-10T12:56:55;96160.94;;;19.56;100.00
41334;BME280;27078;46.428;6.256;2023-06-10T12:59:20;96158.41;;;19.48;100.00
41334;BME280;27078;46.428;6.256;2023-06-10T13:01:52;96153.69;;;19.50;100.00
41334;BME280;27078;46.428;6.256;2023-06-10T13:04:18;96152.88;;;19.49;100.00
41334;BME280;27078;46.428;6.256;2023-06-10T13:06:44;96145.06;;;19.55;100.00